.
WxDataArchive / Data Records for 2015-12-18
2015-12-17 December 2015 2015-12-19

Data Records for Friday, 18 December 2015

Time	Temp	Chill	HIndex	Humid	Dewpt	 Wind 	HiWind	WindDir	Rain 	Barom
-----	----	-----	------	-----	-----	------	------	-------	-----	-----
00:00	31.6	31.6	31.6	62	20.1	1	4	248	0.00	29.956 
00:05	31.6	31.6	31.6	64	20.8	0	2	248	0.00	29.956 
00:10	31.6	31.6	31.6	65	21.2	0	2	248	0.00	29.956 
00:15	31.5	31.5	31.5	66	21.5	0	2	248	0.00	29.955 
00:20	31.3	31.3	31.3	66	21.3	0	2	248	0.00	29.955 
00:25	31.3	31.3	31.3	66	21.3	0	2	248	0.00	29.955 
00:30	31.2	31.2	31.2	66	21.2	0	3	248	0.00	29.954 
00:35	31.0	31.0	31.0	66	21.0	0	2	248	0.00	29.954 
00:40	31.0	31.0	31.0	66	21.0	0	2	248	0.00	29.954 
00:45	31.0	31.0	31.0	66	21.0	0	2	248	0.00	29.955 
00:50	31.0	31.0	31.0	67	21.3	0	2	248	0.00	29.955 
00:55	30.9	30.9	30.9	67	21.3	0	2	248	0.00	29.955 
01:00	30.9	30.9	30.9	67	21.3	0	2	248	0.00	29.949 
01:05	30.7	30.7	30.7	67	21.1	0	1	248	0.00	29.949 
01:10	30.7	30.7	30.7	67	21.1	0	2	248	0.00	29.949 
01:15	30.7	30.7	30.7	67	21.1	0	2	248	0.00	29.947 
01:20	30.7	30.7	30.7	68	21.4	0	1	248	0.00	29.947 
01:25	30.6	30.6	30.6	68	21.3	0	3	248	0.00	29.947 
01:30	30.6	30.6	30.6	68	21.3	0	2	248	0.00	29.944 
01:35	30.6	30.6	30.6	68	21.3	0	2	248	0.00	29.944 
01:40	30.4	30.4	30.4	68	21.1	0	2	248	0.00	29.944 
01:45	30.4	30.4	30.4	68	21.1	0	2	248	0.00	29.942 
01:50	30.3	30.3	30.3	68	21.0	0	2	248	0.00	29.942 
01:55	30.3	30.3	30.3	68	21.0	0	2	248	0.00	29.942 
02:00	30.3	30.3	30.3	68	21.0	0	2	248	0.00	29.941 
02:05	30.1	30.1	30.1	67	20.5	0	2	248	0.00	29.941 
02:10	30.1	30.1	30.1	67	20.5	0	2	248	0.00	29.941 
02:15	30.3	30.3	30.3	66	20.3	1	4	292	0.00	29.940 
02:20	30.4	30.4	30.4	65	20.1	1	3	292	0.00	29.940 
02:25	30.4	30.4	30.4	65	20.1	0	1	292	0.00	29.940 
02:30	30.4	30.4	30.4	66	20.4	0	2	292	0.00	29.941 
02:35	30.4	30.4	30.4	66	20.4	2	4	292	0.00	29.941 
02:40	30.4	30.4	30.4	66	20.4	1	3	292	0.00	29.941 
02:45	30.3	30.3	30.3	66	20.3	1	3	270	0.00	29.944 
02:50	30.1	30.1	30.1	67	20.5	1	3	270	0.00	29.944 
02:55	30.0	30.0	30.0	67	20.4	0	2	270	0.00	29.944 
03:00	29.8	29.8	29.8	68	20.5	0	2	270	0.00	29.946 
03:05	29.8	29.8	29.8	68	20.5	0	1	270	0.00	29.946 
03:10	29.7	29.7	29.7	69	20.8	0	3	270	0.00	29.946 
03:15	29.5	29.5	29.5	69	20.6	0	2	270	0.00	29.947 
03:20	29.5	29.5	29.5	70	20.9	0	1	270	0.00	29.947 
03:25	29.4	29.4	29.4	70	20.8	0	1	270	0.00	29.947 
03:30	29.4	29.4	29.4	70	20.8	0	1	270	0.00	29.949 
03:35	29.3	29.3	29.3	71	21.1	0	1	270	0.00	29.949 
03:40	29.3	29.3	29.3	71	21.1	0	1	270	0.00	29.949 
03:45	29.3	29.3	29.3	71	21.1	1	2	270	0.00	29.948 
03:50	29.3	29.3	29.3	72	21.4	0	2	270	0.00	29.948 
03:55	29.1	29.1	29.1	72	21.2	0	3	270	0.00	29.948 
04:00	29.1	29.1	29.1	72	21.2	0	1	270	0.00	29.943 
04:05	29.1	29.1	29.1	72	21.2	0	2	270	0.00	29.943 
04:10	29.1	29.1	29.1	73	21.5	0	2	270	0.00	29.943 
04:15	29.1	29.1	29.1	73	21.5	0	2	270	0.00	29.936 
04:20	29.1	29.1	29.1	73	21.5	0	2	270	0.00	29.936 
04:25	29.1	29.1	29.1	73	21.5	0	1	270	0.00	29.936 
04:30	29.1	29.1	29.1	73	21.5	0	1	270	0.00	29.935 
04:35	29.0	29.0	29.0	73	21.4	0	1	270	0.00	29.935 
04:40	29.0	29.0	29.0	73	21.4	0	1	270	0.00	29.935 
04:45	28.8	28.8	28.8	73	21.3	0	1	270	0.00	29.936 
04:50	28.7	28.7	28.7	73	21.2	0	1	270	0.00	29.936 
04:55	28.7	28.7	28.7	74	21.5	0	2	270	0.00	29.936 
05:00	28.7	28.7	28.7	74	21.5	0	3	270	0.00	29.934 
05:05	28.5	28.5	28.5	74	21.3	0	1	270	0.00	29.934 
05:10	28.5	28.5	28.5	74	21.3	0	1	270	0.00	29.934 
05:15	28.4	28.4	28.4	75	21.5	0	2	270	0.00	29.935 
05:20	28.4	28.4	28.4	75	21.5	0	2	270	0.00	29.935 
05:25	28.4	28.4	28.4	75	21.5	0	4	270	0.00	29.935 
05:30	28.2	28.2	28.2	75	21.3	0	1	270	0.00	29.934 
05:35	28.2	28.2	28.2	76	21.6	0	2	270	0.00	29.934 
05:40	28.2	28.2	28.2	76	21.6	0	2	270	0.00	29.934 
05:45	28.1	28.1	28.1	76	21.5	0	1	270	0.00	29.933 
05:50	28.1	28.1	28.1	76	21.5	0	1	270	0.00	29.933 
05:55	28.1	28.1	28.1	76	21.5	0	1	270	0.00	29.933 
06:00	27.9	27.9	27.9	77	21.6	0	1	270	0.00	29.934 
06:05	27.9	27.9	27.9	77	21.6	1	3	270	0.00	29.934 
06:10	27.9	27.9	27.9	77	21.6	0	2	270	0.00	29.934 
06:15	27.9	27.9	27.9	77	21.6	0	1	270	0.00	29.934 
06:20	27.8	27.8	27.8	77	21.5	0	2	270	0.00	29.934 
06:25	27.8	27.8	27.8	77	21.5	0	1	270	0.00	29.934 
06:30	27.8	27.8	27.8	77	21.5	0	2	270	0.00	29.933 
06:35	27.6	27.6	27.6	77	21.4	0	1	270	0.00	29.933 
06:40	27.5	27.5	27.5	78	21.6	0	2	270	0.00	29.933 
06:45	27.5	27.5	27.5	78	21.6	0	1	270	0.00	29.935 
06:50	27.3	27.3	27.3	78	21.4	0	1	270	0.00	29.935 
06:55	27.3	27.3	27.3	79	21.7	0	1	270	0.00	29.935 
07:00	27.2	27.2	27.2	79	21.6	0	2	270	0.00	29.937 
07:05	27.2	27.2	27.2	79	21.6	0	2	270	0.00	29.937 
07:10	27.2	27.2	27.2	79	21.6	0	1	270	0.00	29.937 
07:15	27.0	27.0	27.0	79	21.4	0	2	270	0.00	29.940 
07:20	27.0	27.0	27.0	80	21.7	0	1	270	0.00	29.940 
07:25	26.9	26.9	26.9	80	21.6	0	2	270	0.00	29.940 
07:30	26.9	26.9	26.9	80	21.6	0	1	270	0.00	29.940 
07:35	26.7	26.7	26.7	80	21.4	0	1	270	0.00	29.940 
07:40	26.7	26.7	26.7	80	21.4	1	4	270	0.00	29.940 
07:45	26.7	26.7	26.7	81	21.7	0	1	270	0.00	29.945 
07:50	26.7	26.7	26.7	81	21.7	0	3	270	0.00	29.945 
07:55	26.7	26.7	26.7	81	21.7	0	2	270	0.00	29.945 
08:00	26.6	26.6	26.6	81	21.6	0	1	270	0.00	29.948 
08:05	26.6	26.6	26.6	81	21.6	0	3	270	0.00	29.948 
08:10	26.6	26.6	26.6	81	21.6	0	3	270	0.00	29.948 
08:15	26.6	26.6	26.6	81	21.6	0	2	270	0.00	29.949 
08:20	26.6	26.6	26.6	81	21.6	0	2	270	0.00	29.949 
08:25	26.6	26.6	26.6	81	21.6	0	2	270	0.00	29.949 
08:30	26.6	26.6	26.6	81	21.6	0	1	270	0.00	29.944 
08:35	26.7	26.7	26.7	81	21.7	0	2	270	0.00	29.944 
08:40	26.7	26.7	26.7	81	21.7	0	2	270	0.00	29.944 
08:45	26.9	26.9	26.9	81	21.9	0	2	270	0.00	29.948 
08:50	27.0	27.0	27.0	81	22.0	0	1	270	0.00	29.948 
08:55	27.0	27.0	27.0	81	22.0	0	2	270	0.00	29.948 
09:00	27.2	27.2	27.2	80	21.9	0	4	270	0.00	29.950 
09:05	27.3	27.3	27.3	79	21.7	1	3	270	0.00	29.950 
09:10	27.5	27.5	27.5	79	21.9	1	3	248	0.00	29.950 
09:15	27.6	27.6	27.6	78	21.7	0	2	248	0.00	29.952 
09:20	27.6	27.6	27.6	78	21.7	0	3	248	0.00	29.952 
09:25	27.8	27.8	27.8	77	21.5	1	5	248	0.00	29.952 
09:30	27.8	27.8	27.8	77	21.5	1	3	248	0.00	29.961 
09:35	27.9	27.9	27.9	76	21.3	2	4	248	0.00	29.961 
09:40	27.9	27.9	27.9	75	21.0	1	4	248	0.00	29.961 
09:45	28.1	28.1	28.1	74	20.9	3	7	270	0.00	29.963 
09:50	28.1	28.1	28.1	74	20.9	1	3	270	0.00	29.963 
09:55	28.2	28.2	28.2	73	20.7	2	5	270	0.00	29.963 
10:00	28.2	28.2	28.2	73	20.7	2	6	248	0.00	29.965 
10:05	28.4	28.4	28.4	72	20.5	2	5	270	0.00	29.965 
10:10	28.5	28.5	28.5	72	20.6	1	4	270	0.00	29.965 
10:15	28.7	28.7	28.7	71	20.5	1	3	292	0.00	29.963 
10:20	28.7	28.7	28.7	71	20.5	2	4	292	0.00	29.963 
10:25	28.8	28.8	28.8	70	20.3	1	3	248	0.00	29.963 
10:30	28.8	28.8	28.8	69	19.9	2	7	248	0.00	29.964 
10:35	28.8	28.8	28.8	68	19.6	3	7	248	0.00	29.964 
10:40	29.0	29.0	29.0	68	19.8	2	5	248	0.00	29.964 
10:45	29.1	29.1	29.1	68	19.9	2	4	270	0.00	29.964 
10:50	29.1	29.1	29.1	66	19.2	2	5	248	0.00	29.964 
10:55	29.1	29.1	29.1	66	19.2	2	5	270	0.00	29.964 
11:00	29.1	29.1	29.1	66	19.2	2	5	248	0.00	29.964 
11:05	29.1	29.1	29.1	65	18.8	3	6	292	0.00	29.964 
11:10	29.1	29.1	29.1	64	18.5	3	6	270	0.00	29.964 
11:15	29.3	29.3	29.3	64	18.7	2	5	270	0.00	29.966 
11:20	29.4	29.4	29.4	64	18.8	1	4	270	0.00	29.966 
11:25	29.7	29.7	29.7	63	18.7	2	5	270	0.00	29.966 
11:30	29.8	29.8	29.8	61	18.0	2	7	248	0.00	29.962 
11:35	29.8	29.8	29.8	59	17.2	3	6	270	0.00	29.962 
11:40	29.8	29.8	29.8	61	18.0	1	5	248	0.00	29.962 
11:45	29.7	29.7	29.7	61	17.9	2	7	248	0.00	29.958 
11:50	29.5	29.5	29.5	62	18.1	2	5	270	0.00	29.958 
11:55	29.4	29.4	29.4	61	17.6	2	7	248	0.00	29.958 
12:00	29.4	29.4	29.4	59	16.9	2	5	248	0.00	29.956 
12:05	29.3	29.3	29.3	58	16.4	3	10	248	0.00	29.956 
12:10	29.1	29.1	29.1	58	16.2	3	6	270	0.00	29.956 
12:15	29.0	29.0	29.0	59	16.5	3	7	248	0.00	29.960 
12:20	28.7	28.7	28.7	61	17.0	3	8	270	0.00	29.960 
12:25	28.5	28.5	28.5	60	16.4	3	5	270	0.00	29.960 
12:30	28.5	28.5	28.5	58	15.6	2	4	248	0.00	29.956 
12:35	28.7	28.7	28.7	59	16.2	2	7	248	0.00	29.956 
12:40	28.7	28.7	28.7	59	16.2	1	4	248	0.00	29.956 
12:45	28.8	28.8	28.8	59	16.3	1	4	248	0.00	29.949 
12:50	29.0	29.0	29.0	59	16.5	2	5	270	0.00	29.949 
12:55	28.8	28.8	28.8	59	16.3	2	5	248	0.00	29.949 
13:00	28.8	28.8	28.8	60	16.7	3	7	292	0.00	29.945 
13:05	29.0	29.0	29.0	60	16.9	2	5	248	0.00	29.945 
13:10	29.1	29.1	29.1	61	17.4	1	5	292	0.00	29.945 
13:15	29.0	29.0	29.0	60	16.9	3	6	270	0.00	29.949 
13:20	28.8	28.8	28.8	62	17.4	3	9	248	0.00	29.949 
13:25	28.8	28.8	28.8	62	17.4	2	4	248	0.00	29.949 
13:30	29.0	29.0	29.0	62	17.6	2	5	270	0.00	29.947 
13:35	29.3	29.3	29.3	62	17.9	3	6	270	0.00	29.947 
13:40	29.8	29.8	29.8	59	17.2	3	10	270	0.00	29.947 
13:45	29.7	29.7	29.7	57	16.4	3	9	248	0.00	29.943 
13:50	29.4	29.4	29.4	57	16.1	3	10	248	0.00	29.943 
13:55	29.3	29.3	29.3	58	16.4	2	6	292	0.00	29.943 
14:00	29.1	29.1	29.1	57	15.8	3	7	270	0.00	29.949 
14:05	29.3	29.3	29.3	54	14.7	2	6	248	0.00	29.949 
14:10	29.4	29.4	29.4	53	14.4	3	7	248	0.00	29.949 
14:15	29.4	29.4	29.4	52	14.0	2	6	248	0.00	29.948 
14:20	29.5	29.5	29.5	52	14.1	2	5	270	0.00	29.948 
14:25	29.3	25.0	29.3	51	13.4	4	9	270	0.00	29.948 
14:30	29.1	29.1	29.1	52	13.7	3	5	270	0.00	29.950 
14:35	29.0	29.0	29.0	53	14.0	3	7	248	0.00	29.950 
14:40	29.0	29.0	29.0	52	13.6	3	7	270	0.00	29.950 
14:45	28.8	28.8	28.8	50	12.5	3	8	270	0.00	29.957 
14:50	28.8	28.8	28.8	51	13.0	3	6	248	0.00	29.957 
14:55	29.0	29.0	29.0	52	13.6	2	5	248	0.00	29.957 
15:00	28.7	28.7	28.7	52	13.3	3	10	248	0.00	29.960 
15:05	28.5	28.5	28.5	52	13.1	3	7	270	0.00	29.960 
15:10	28.7	28.7	28.7	52	13.3	2	5	270	0.00	29.960 
15:15	28.7	28.7	28.7	52	13.3	3	6	270	0.00	29.967 
15:20	28.7	28.7	28.7	52	13.3	2	6	248	0.00	29.967 
15:25	28.5	28.5	28.5	52	13.1	3	10	270	0.00	29.967 
15:30	28.7	24.3	28.7	51	12.9	4	10	270	0.00	29.978 
15:35	28.8	24.4	28.8	50	12.5	4	11	270	0.00	29.978 
15:40	28.5	28.5	28.5	50	12.3	3	7	270	0.00	29.978 
15:45	28.4	28.4	28.4	50	12.2	3	8	270	0.00	29.986 
15:50	28.5	24.0	28.5	51	12.7	4	7	270	0.00	29.986 
15:55	28.5	28.5	28.5	51	12.7	3	6	270	0.00	29.986 
16:00	28.8	28.8	28.8	50	12.5	3	9	270	0.00	29.988 
16:05	29.0	29.0	29.0	50	12.7	3	6	270	0.00	29.988 
16:10	29.0	29.0	29.0	50	12.7	3	8	292	0.00	29.988 
16:15	28.8	28.8	28.8	50	12.5	3	7	270	0.00	29.997 
16:20	28.8	28.8	28.8	51	13.0	2	6	270	0.00	29.997 
16:25	29.0	29.0	29.0	51	13.2	3	7	270	0.00	29.997 
16:30	29.3	29.3	29.3	50	13.0	2	6	270	0.00	29.997 
16:35	29.3	29.3	29.3	50	13.0	3	6	248	0.00	29.997 
16:40	29.1	29.1	29.1	51	13.3	2	6	270	0.00	29.997 
16:45	29.0	24.6	29.0	50	12.7	4	8	270	0.00	29.998 
16:50	28.8	28.8	28.8	51	13.0	2	5	270	0.00	29.998 
16:55	28.7	28.7	28.7	52	13.3	2	6	270	0.00	29.998 
17:00	28.5	28.5	28.5	52	13.1	2	7	270	0.00	30.000 
17:05	28.5	28.5	28.5	53	13.6	2	6	248	0.00	30.000 
17:10	28.4	28.4	28.4	53	13.5	3	7	270	0.00	30.000 
17:15	28.4	28.4	28.4	53	13.5	2	5	270	0.00	30.015 
17:20	28.2	28.2	28.2	54	13.7	2	5	248	0.00	30.015 
17:25	28.2	28.2	28.2	54	13.7	2	5	270	0.00	30.015 
17:30	28.1	28.1	28.1	55	14.0	1	3	270	0.00	30.022 
17:35	28.1	28.1	28.1	56	14.5	1	5	270	0.00	30.022 
17:40	28.2	28.2	28.2	56	14.5	1	3	270	0.00	30.022 
17:45	28.4	28.4	28.4	56	14.7	1	4	292	0.00	30.029 
17:50	28.4	28.4	28.4	57	15.1	1	2	248	0.00	30.029 
17:55	28.4	28.4	28.4	57	15.1	2	4	270	0.00	30.029 
18:00	28.4	28.4	28.4	57	15.1	1	4	270	0.00	30.032 
18:05	28.2	28.2	28.2	57	14.9	1	4	270	0.00	30.032 
18:10	28.1	28.1	28.1	58	15.3	0	2	270	0.00	30.032 
18:15	28.1	28.1	28.1	58	15.3	1	3	270	0.00	30.039 
18:20	27.9	27.9	27.9	58	15.1	1	4	270	0.00	30.039 
18:25	27.9	27.9	27.9	59	15.5	0	3	270	0.00	30.039 
18:30	27.8	27.8	27.8	59	15.4	0	3	270	0.00	30.043 
18:35	27.8	27.8	27.8	59	15.4	1	5	270	0.00	30.043 
18:40	27.6	27.6	27.6	60	15.6	0	3	248	0.00	30.043 
18:45	27.6	27.6	27.6	60	15.6	0	3	248	0.00	30.047 
18:50	27.5	27.5	27.5	61	15.8	0	4	248	0.00	30.047 
18:55	27.5	27.5	27.5	61	15.8	0	2	248	0.00	30.047 
19:00	27.3	27.3	27.3	62	16.0	1	3	248	0.00	30.052 
19:05	27.3	27.3	27.3	62	16.0	0	2	248	0.00	30.052 
19:10	27.2	27.2	27.2	62	15.9	0	1	248	0.00	30.052 
19:15	27.3	27.3	27.3	63	16.4	0	3	248	0.00	30.060 
19:20	27.3	27.3	27.3	63	16.4	0	2	248	0.00	30.060 
19:25	27.3	27.3	27.3	63	16.4	0	1	248	0.00	30.060 
19:30	27.2	27.2	27.2	63	16.3	0	2	248	0.00	30.062 
19:35	27.2	27.2	27.2	64	16.7	0	2	248	0.00	30.062 
19:40	27.2	27.2	27.2	64	16.7	0	2	248	0.00	30.062 
19:45	27.0	27.0	27.0	64	16.5	0	2	248	0.00	30.062 
19:50	27.0	27.0	27.0	65	16.8	0	1	248	0.00	30.062 
19:55	26.9	26.9	26.9	65	16.7	0	1	248	0.00	30.062 
20:00	26.7	26.7	26.7	66	16.9	0	1	248	0.00	30.063 
20:05	26.7	26.7	26.7	66	16.9	0	4	248	0.00	30.063 
20:10	26.7	26.7	26.7	67	17.2	0	2	248	0.00	30.063 
20:15	26.9	26.9	26.9	67	17.4	0	2	248	0.00	30.062 
20:20	27.0	27.0	27.0	68	17.9	0	3	248	0.00	30.062 
20:25	27.3	27.3	27.3	68	18.2	0	2	248	0.00	30.062 
20:30	27.5	27.5	27.5	67	18.0	0	2	248	0.00	30.061 
20:35	27.8	27.8	27.8	67	18.3	0	2	248	0.00	30.061 
20:40	27.8	27.8	27.8	67	18.3	1	4	248	0.00	30.061 
20:45	28.1	28.1	28.1	67	18.6	1	4	270	0.00	30.063 
20:50	28.2	28.2	28.2	67	18.7	0	4	270	0.00	30.063 
20:55	28.4	28.4	28.4	67	18.9	1	4	248	0.00	30.063 
21:00	28.7	28.7	28.7	66	18.8	1	4	248	0.00	30.056 
21:05	28.8	28.8	28.8	65	18.5	1	5	248	0.00	30.056 
21:10	28.8	28.8	28.8	65	18.5	0	3	248	0.00	30.056 
21:15	29.0	29.0	29.0	65	18.7	1	3	248	0.00	30.061 
21:20	29.0	29.0	29.0	66	19.1	0	3	248	0.00	30.061 
21:25	29.0	29.0	29.0	67	19.4	1	4	248	0.00	30.061 
21:30	28.8	28.8	28.8	68	19.6	0	2	248	0.00	30.057 
21:35	28.8	28.8	28.8	68	19.6	1	3	248	0.00	30.057 
21:40	28.8	28.8	28.8	69	19.9	1	3	248	0.00	30.057 
21:45	28.7	28.7	28.7	73	21.2	1	5	248	0.00	30.054 
21:50	28.4	28.4	28.4	75	21.5	0	3	248	0.00	30.054 
21:55	28.1	28.1	28.1	75	21.2	0	3	270	0.00	30.054 
22:00	28.1	28.1	28.1	75	21.2	0	2	270	0.00	30.052 
22:05	28.1	28.1	28.1	74	20.9	0	2	270	0.00	30.052 
22:10	28.2	28.2	28.2	73	20.7	0	1	270	0.00	30.052 
22:15	28.2	28.2	28.2	72	20.4	0	4	270	0.00	30.052 
22:20	28.4	28.4	28.4	72	20.5	1	4	248	0.00	30.052 
22:25	28.4	28.4	28.4	72	20.5	0	2	248	0.00	30.052 
22:30	28.4	28.4	28.4	73	20.9	0	2	248	0.00	30.050 
22:35	28.4	28.4	28.4	73	20.9	0	3	248	0.00	30.050 
22:40	28.4	28.4	28.4	73	20.9	0	3	248	0.00	30.050 
22:45	28.4	28.4	28.4	73	20.9	1	6	248	0.00	30.059 
22:50	28.5	28.5	28.5	73	21.0	0	2	248	0.00	30.059 
22:55	28.4	28.4	28.4	75	21.5	1	4	248	0.00	30.059 
23:00	28.4	28.4	28.4	75	21.5	0	2	248	0.00	30.055 
23:05	28.1	28.1	28.1	76	21.5	0	1	248	0.00	30.055 
23:10	27.9	27.9	27.9	76	21.3	0	2	248	0.00	30.055 
23:15	27.9	27.9	27.9	76	21.3	0	1	248	0.00	30.058 
23:20	27.8	27.8	27.8	75	20.9	0	2	248	0.00	30.058 
23:25	27.9	27.9	27.9	74	20.7	1	4	248	0.00	30.058 
23:30	28.2	28.2	28.2	73	20.7	0	3	90	0.00	30.059 
23:35	28.4	28.4	28.4	72	20.5	1	4	248	0.00	30.059 
23:40	28.5	28.5	28.5	71	20.3	0	3	248	0.00	30.059 
23:45	28.7	28.7	28.7	70	20.2	1	6	248	0.00	30.059 
23:50	28.7	28.7	28.7	70	20.2	0	2	248	0.00	30.059 
23:55	28.7	28.7	28.7	70	20.2	0	3	248	0.00	30.059 

CoCoRaHS
IN-AL-39
A2 Web Hosting
Creative Commons License
GoDaddy
search engine by freefind advanced

loaded 2018-11-15 05:41:55 • last modified 2010-11-18 10:43:29
Privacy PolicyDisclaimer
• wx.awcolley.com is powered by PmWiki v.2002016 •
• all content (unless otherwise noted) © 2018 A W Colley